VOZ1398 YBBN-YPAD
Flight info
| Callsign | VOZ1398 |
|---|---|
| Flight time | 2h 19m |
| Altitude | 34000 |
| Route | SANEG Q4 PAVBI Q16 MIA Q4 WOONA Q60 KAKLU |
| Aircraft | B38M/M-SDE1FGHILORVWXY/HB1 |
Departure
| Time | 2026-05-06 11:13 |
|---|---|
| Airport | Brisbane International Airport (YBBN) |
Arrival
| Time | 2026-05-06 13:33 |
|---|---|
| Airport | Adelaide International Airport (YPAD) |
| Time | Latitude | Longitude | Altitude | Speed | Heading |
|---|---|---|---|---|---|
| 2026-05-06 10:44 | -27.38892 | 153.11956 | 20 ft | 0 kts | 0° |
| 2026-05-06 11:01 | -27.38908 | 153.11956 | 20 ft | 2 kts | 2° |
| 2026-05-06 11:01 | -27.38924 | 153.11953 | 22 ft | 2 kts | 26° |
| 2026-05-06 11:02 | -27.38937 | 153.11942 | 22 ft | 2 kts | 44° |
| 2026-05-06 11:02 | -27.38947 | 153.11928 | 23 ft | 2 kts | 81° |
| 2026-05-06 11:02 | -27.38942 | 153.11911 | 22 ft | 2 kts | 120° |
| 2026-05-06 11:02 | -27.38938 | 153.11903 | 24 ft | 0 kts | 123° |
| 2026-05-06 11:06 | -27.38939 | 153.11905 | 24 ft | 1 kts | 123° |
| 2026-05-06 11:06 | -27.38963 | 153.11955 | 22 ft | 13 kts | 118° |
| 2026-05-06 11:06 | -27.39011 | 153.12047 | 20 ft | 14 kts | 116° |
| 2026-05-06 11:06 | -27.39035 | 153.12147 | 20 ft | 14 kts | 70° |
| 2026-05-06 11:07 | -27.38951 | 153.12215 | 20 ft | 17 kts | 26° |
| 2026-05-06 11:07 | -27.38839 | 153.12279 | 20 ft | 20 kts | 27° |
| 2026-05-06 11:07 | -27.38710 | 153.12353 | 20 ft | 21 kts | 27° |
| 2026-05-06 11:07 | -27.38585 | 153.12425 | 21 ft | 21 kts | 27° |
| 2026-05-06 11:08 | -27.38449 | 153.12503 | 20 ft | 21 kts | 27° |
| 2026-05-06 11:08 | -27.38329 | 153.12571 | 22 ft | 18 kts | 26° |
| 2026-05-06 11:08 | -27.38215 | 153.12636 | 22 ft | 19 kts | 28° |
| 2026-05-06 11:08 | -27.38092 | 153.12706 | 20 ft | 21 kts | 27° |
| 2026-05-06 11:09 | -27.37965 | 153.12779 | 21 ft | 21 kts | 27° |
| 2026-05-06 11:09 | -27.37847 | 153.12847 | 21 ft | 18 kts | 27° |
| 2026-05-06 11:09 | -27.37732 | 153.12913 | 21 ft | 19 kts | 27° |
| 2026-05-06 11:09 | -27.37607 | 153.12984 | 21 ft | 21 kts | 27° |
| 2026-05-06 11:10 | -27.37478 | 153.13058 | 21 ft | 21 kts | 26° |
| 2026-05-06 11:10 | -27.37342 | 153.13135 | 20 ft | 23 kts | 27° |
| 2026-05-06 11:10 | -27.37268 | 153.13208 | 20 ft | 10 kts | 92° |
| 2026-05-06 11:10 | -27.37298 | 153.13287 | 20 ft | 12 kts | 115° |
| 2026-05-06 11:11 | -27.37329 | 153.13358 | 23 ft | 0 kts | 116° |
| 2026-05-06 11:11 | -27.37330 | 153.13360 | 23 ft | 0 kts | 117° |
| 2026-05-06 11:11 | -27.37330 | 153.13361 | 23 ft | 0 kts | 117° |
| 2026-05-06 11:11 | -27.37343 | 153.13381 | 22 ft | 9 kts | 126° |
| 2026-05-06 11:12 | -27.37410 | 153.13428 | 26 ft | 13 kts | 167° |
| 2026-05-06 11:12 | -27.37496 | 153.13415 | 28 ft | 13 kts | 206° |
| 2026-05-06 11:12 | -27.37635 | 153.13335 | 24 ft | 48 kts | 207° |
| 2026-05-06 11:12 | -27.38160 | 153.13033 | 27 ft | 119 kts | 207° |
| 2026-05-06 11:13 | -27.39066 | 153.12512 | 107 ft | 165 kts | 207° |
| 2026-05-06 11:13 | -27.40113 | 153.11921 | 725 ft | 173 kts | 207° |
| 2026-05-06 11:13 | -27.41271 | 153.11426 | 1268 ft | 186 kts | 193° |
| 2026-05-06 11:13 | -27.42527 | 153.11220 | 2119 ft | 187 kts | 180° |
| 2026-05-06 11:14 | -27.43898 | 153.11262 | 2602 ft | 208 kts | 174° |
| 2026-05-06 11:14 | -27.45379 | 153.11529 | 3234 ft | 220 kts | 162° |
| 2026-05-06 11:14 | -27.46796 | 153.12269 | 3898 ft | 234 kts | 149° |
| 2026-05-06 11:14 | -27.48180 | 153.13339 | 4593 ft | 241 kts | 141° |
| 2026-05-06 11:15 | -27.49597 | 153.14381 | 5332 ft | 254 kts | 163° |
| 2026-05-06 11:15 | -27.51391 | 153.14505 | 5895 ft | 268 kts | 192° |
| 2026-05-06 11:15 | -27.52608 | 153.14173 | 6363 ft | 273 kts | 194° |
| 2026-05-06 11:15 | -27.54470 | 153.13724 | 7251 ft | 276 kts | 193° |
| 2026-05-06 11:16 | -27.56344 | 153.13173 | 8045 ft | 280 kts | 201° |
| 2026-05-06 11:16 | -27.58806 | 153.12214 | 9153 ft | 286 kts | 201° |
| 2026-05-06 11:16 | -27.60082 | 153.11725 | 9713 ft | 289 kts | 201° |
| 2026-05-06 11:16 | -27.62666 | 153.10799 | 10527 ft | 304 kts | 199° |
| 2026-05-06 11:17 | -27.64068 | 153.10334 | 10750 ft | 317 kts | 199° |
| 2026-05-06 11:17 | -27.66235 | 153.09613 | 11158 ft | 332 kts | 199° |
| 2026-05-06 11:17 | -27.68458 | 153.08869 | 11766 ft | 339 kts | 199° |
| 2026-05-06 11:17 | -27.70722 | 153.08109 | 12486 ft | 342 kts | 200° |
| 2026-05-06 11:18 | -27.73031 | 153.07333 | 13151 ft | 347 kts | 200° |
| 2026-05-06 11:18 | -27.75354 | 153.06551 | 13830 ft | 351 kts | 200° |
| 2026-05-06 11:18 | -27.77719 | 153.05755 | 14429 ft | 355 kts | 200° |
| 2026-05-06 11:18 | -27.80097 | 153.04949 | 15040 ft | 358 kts | 202° |
| 2026-05-06 11:19 | -27.82278 | 153.03669 | 15631 ft | 353 kts | 222° |
| 2026-05-06 11:19 | -27.84167 | 153.01891 | 16148 ft | 357 kts | 224° |
| 2026-05-06 11:19 | -27.86067 | 153.00081 | 16734 ft | 358 kts | 225° |
| 2026-05-06 11:19 | -27.87973 | 152.98237 | 17291 ft | 362 kts | 225° |
| 2026-05-06 11:20 | -27.90505 | 152.95760 | 18015 ft | 365 kts | 226° |
| 2026-05-06 11:20 | -27.91803 | 152.94481 | 18371 ft | 367 kts | 226° |
| 2026-05-06 11:20 | -27.93712 | 152.92595 | 18827 ft | 370 kts | 226° |
| 2026-05-06 11:20 | -27.95654 | 152.90671 | 19296 ft | 371 kts | 226° |
| 2026-05-06 11:21 | -27.97600 | 152.88744 | 19771 ft | 373 kts | 227° |
| 2026-05-06 11:21 | -27.99560 | 152.86801 | 20244 ft | 375 kts | 227° |
| 2026-05-06 11:21 | -28.01520 | 152.84857 | 20729 ft | 377 kts | 227° |
| 2026-05-06 11:21 | -28.03503 | 152.82888 | 21160 ft | 379 kts | 227° |
| 2026-05-06 11:22 | -28.05495 | 152.80910 | 21632 ft | 380 kts | 228° |
| 2026-05-06 11:22 | -28.07492 | 152.78926 | 22106 ft | 382 kts | 228° |
| 2026-05-06 11:22 | -28.09471 | 152.76960 | 22576 ft | 384 kts | 228° |
| 2026-05-06 11:22 | -28.11484 | 152.74957 | 23044 ft | 386 kts | 228° |
| 2026-05-06 11:23 | -28.13514 | 152.72937 | 23526 ft | 389 kts | 228° |
| 2026-05-06 11:23 | -28.15554 | 152.70907 | 23939 ft | 391 kts | 228° |
| 2026-05-06 11:23 | -28.17606 | 152.68863 | 24352 ft | 393 kts | 228° |
| 2026-05-06 11:23 | -28.19660 | 152.66816 | 24762 ft | 395 kts | 229° |
| 2026-05-06 11:24 | -28.21727 | 152.64755 | 25174 ft | 396 kts | 229° |
| 2026-05-06 11:24 | -28.23804 | 152.62684 | 25585 ft | 398 kts | 229° |
| 2026-05-06 11:24 | -28.25885 | 152.60606 | 26008 ft | 400 kts | 229° |
| 2026-05-06 11:24 | -28.27986 | 152.58508 | 26403 ft | 402 kts | 229° |
| 2026-05-06 11:25 | -28.30093 | 152.56403 | 26799 ft | 404 kts | 229° |
| 2026-05-06 11:25 | -28.32180 | 152.54314 | 27126 ft | 407 kts | 229° |
| 2026-05-06 11:25 | -28.34306 | 152.52189 | 27520 ft | 408 kts | 229° |
| 2026-05-06 11:25 | -28.36443 | 152.50051 | 27881 ft | 410 kts | 229° |
| 2026-05-06 11:26 | -28.38463 | 152.47795 | 28244 ft | 403 kts | 239° |
| 2026-05-06 11:26 | -28.40163 | 152.45267 | 28543 ft | 406 kts | 238° |
| 2026-05-06 11:26 | -28.41936 | 152.42752 | 28914 ft | 408 kts | 239° |
| 2026-05-06 11:26 | -28.43702 | 152.40223 | 29273 ft | 409 kts | 239° |
| 2026-05-06 11:27 | -28.45474 | 152.37669 | 29613 ft | 411 kts | 239° |
| 2026-05-06 11:27 | -28.47241 | 152.35112 | 29966 ft | 413 kts | 239° |
| 2026-05-06 11:27 | -28.49020 | 152.32534 | 30283 ft | 415 kts | 239° |
| 2026-05-06 11:27 | -28.50782 | 152.29979 | 30595 ft | 416 kts | 239° |
| 2026-05-06 11:28 | -28.52565 | 152.27391 | 30906 ft | 416 kts | 240° |
| 2026-05-06 11:28 | -28.54348 | 152.24804 | 31200 ft | 417 kts | 240° |
| 2026-05-06 11:28 | -28.56144 | 152.22195 | 31538 ft | 417 kts | 240° |
| 2026-05-06 11:28 | -28.57929 | 152.19601 | 31942 ft | 414 kts | 240° |
| 2026-05-06 11:29 | -28.59693 | 152.17036 | 32415 ft | 410 kts | 241° |
| 2026-05-06 11:29 | -28.61443 | 152.14490 | 32884 ft | 406 kts | 241° |
| 2026-05-06 11:29 | -28.63177 | 152.11966 | 33369 ft | 402 kts | 242° |
| 2026-05-06 11:29 | -28.64891 | 152.09468 | 33842 ft | 399 kts | 242° |
| 2026-05-06 11:30 | -28.66597 | 152.06980 | 34157 ft | 399 kts | 242° |
| 2026-05-06 11:30 | -28.70050 | 152.01938 | 34140 ft | 406 kts | 242° |
| 2026-05-06 11:31 | -28.73518 | 151.96872 | 34158 ft | 409 kts | 242° |
| 2026-05-06 11:31 | -28.77020 | 151.91752 | 34146 ft | 409 kts | 242° |
| 2026-05-06 11:32 | -28.80515 | 151.86632 | 34150 ft | 408 kts | 242° |
| 2026-05-06 11:32 | -28.83997 | 151.81526 | 34152 ft | 408 kts | 242° |
| 2026-05-06 11:33 | -28.87484 | 151.76407 | 34145 ft | 408 kts | 242° |
| 2026-05-06 11:33 | -28.90950 | 151.71310 | 34163 ft | 410 kts | 242° |
| 2026-05-06 11:34 | -28.94418 | 151.66124 | 34154 ft | 411 kts | 242° |
| 2026-05-06 11:34 | -28.97867 | 151.60893 | 34143 ft | 411 kts | 243° |
| 2026-05-06 11:35 | -29.01301 | 151.55689 | 34134 ft | 410 kts | 243° |
| 2026-05-06 11:35 | -29.04716 | 151.50503 | 34145 ft | 411 kts | 243° |
| 2026-05-06 11:36 | -29.08148 | 151.45287 | 34129 ft | 410 kts | 243° |
| 2026-05-06 11:36 | -29.11588 | 151.40047 | 34134 ft | 415 kts | 242° |
| 2026-05-06 11:37 | -29.15059 | 151.34760 | 34133 ft | 415 kts | 242° |
| 2026-05-06 11:37 | -29.18524 | 151.29472 | 34129 ft | 415 kts | 242° |
| 2026-05-06 11:38 | -29.21964 | 151.24206 | 34136 ft | 415 kts | 243° |
| 2026-05-06 11:38 | -29.25345 | 151.18864 | 34130 ft | 414 kts | 243° |
| 2026-05-06 11:39 | -29.28735 | 151.13516 | 34140 ft | 416 kts | 243° |
| 2026-05-06 11:39 | -29.32147 | 151.08128 | 34132 ft | 419 kts | 242° |
| 2026-05-06 11:40 | -29.35568 | 151.02720 | 34139 ft | 419 kts | 243° |
| 2026-05-06 11:40 | -29.38969 | 150.97334 | 34134 ft | 419 kts | 243° |
| 2026-05-06 11:41 | -29.42394 | 150.91905 | 34135 ft | 419 kts | 243° |
| 2026-05-06 11:41 | -29.45810 | 150.86482 | 34135 ft | 419 kts | 243° |
| 2026-05-06 11:42 | -29.49235 | 150.81035 | 34132 ft | 421 kts | 242° |
| 2026-05-06 11:42 | -29.52643 | 150.75612 | 34136 ft | 422 kts | 242° |
| 2026-05-06 11:43 | -29.56070 | 150.70148 | 34139 ft | 421 kts | 242° |
| 2026-05-06 11:43 | -29.59497 | 150.64681 | 34135 ft | 421 kts | 242° |
| 2026-05-06 11:44 | -29.64626 | 150.56481 | 34170 ft | 421 kts | 242° |
| 2026-05-06 11:44 | -29.68030 | 150.51023 | 34149 ft | 423 kts | 242° |
| 2026-05-06 11:45 | -29.71456 | 150.45527 | 34155 ft | 423 kts | 242° |
| 2026-05-06 11:45 | -29.74879 | 150.40026 | 34143 ft | 422 kts | 242° |
| 2026-05-06 11:46 | -29.78293 | 150.34532 | 34150 ft | 422 kts | 242° |
| 2026-05-06 11:46 | -29.81710 | 150.29028 | 34146 ft | 422 kts | 242° |
| 2026-05-06 11:47 | -29.85122 | 150.23523 | 34151 ft | 422 kts | 242° |
| 2026-05-06 11:47 | -29.88504 | 150.18060 | 34148 ft | 422 kts | 242° |
| 2026-05-06 11:48 | -29.91915 | 150.12542 | 34150 ft | 423 kts | 242° |
| 2026-05-06 11:48 | -29.95322 | 150.07023 | 34155 ft | 423 kts | 242° |
| 2026-05-06 11:49 | -29.98734 | 150.01489 | 34146 ft | 422 kts | 242° |
| 2026-05-06 11:49 | -30.02135 | 149.95962 | 34161 ft | 422 kts | 242° |
| 2026-05-06 11:50 | -30.05520 | 149.90458 | 34149 ft | 422 kts | 242° |
| 2026-05-06 11:50 | -30.08923 | 149.84915 | 34142 ft | 422 kts | 242° |
| 2026-05-06 11:51 | -30.12323 | 149.79369 | 34151 ft | 422 kts | 242° |
| 2026-05-06 11:51 | -30.15695 | 149.73862 | 34150 ft | 422 kts | 242° |
| 2026-05-06 11:52 | -30.19084 | 149.68316 | 34156 ft | 424 kts | 242° |
| 2026-05-06 11:52 | -30.22497 | 149.62729 | 34147 ft | 425 kts | 242° |
| 2026-05-06 11:53 | -30.25890 | 149.57163 | 34149 ft | 425 kts | 242° |
| 2026-05-06 11:53 | -30.29295 | 149.51572 | 34150 ft | 424 kts | 242° |
| 2026-05-06 11:54 | -30.32692 | 149.45984 | 34151 ft | 425 kts | 242° |
| 2026-05-06 11:54 | -30.36086 | 149.40393 | 34163 ft | 425 kts | 242° |
| 2026-05-06 11:55 | -30.39497 | 149.34769 | 34151 ft | 426 kts | 242° |
| 2026-05-06 11:55 | -30.42891 | 149.29165 | 34149 ft | 426 kts | 242° |
| 2026-05-06 11:56 | -30.46288 | 149.23545 | 34151 ft | 426 kts | 242° |
| 2026-05-06 11:56 | -30.49695 | 149.17903 | 34151 ft | 426 kts | 242° |
| 2026-05-06 11:57 | -30.53096 | 149.12262 | 34172 ft | 427 kts | 242° |
| 2026-05-06 11:57 | -30.56496 | 149.06615 | 34155 ft | 427 kts | 242° |
| 2026-05-06 11:58 | -30.59872 | 149.01001 | 34155 ft | 427 kts | 242° |
| 2026-05-06 11:58 | -30.63267 | 148.95344 | 34156 ft | 427 kts | 242° |
| 2026-05-06 11:59 | -30.66660 | 148.89687 | 34159 ft | 427 kts | 242° |
| 2026-05-06 11:59 | -30.70050 | 148.84026 | 34174 ft | 427 kts | 242° |
| 2026-05-06 12:00 | -30.73434 | 148.78367 | 34166 ft | 426 kts | 242° |
| 2026-05-06 12:00 | -30.76790 | 148.72740 | 34166 ft | 426 kts | 242° |
| 2026-05-06 12:01 | -30.80177 | 148.67058 | 34165 ft | 426 kts | 242° |
| 2026-05-06 12:01 | -30.83555 | 148.61383 | 34168 ft | 426 kts | 242° |
| 2026-05-06 12:02 | -30.86927 | 148.55708 | 34183 ft | 426 kts | 243° |
| 2026-05-06 12:02 | -30.90289 | 148.50045 | 34174 ft | 426 kts | 243° |
| 2026-05-06 12:03 | -30.93656 | 148.44363 | 34172 ft | 426 kts | 243° |
| 2026-05-06 12:03 | -30.97027 | 148.38668 | 34175 ft | 426 kts | 243° |
| 2026-05-06 12:04 | -31.00372 | 148.33007 | 34175 ft | 426 kts | 243° |
| 2026-05-06 12:04 | -31.03727 | 148.27322 | 34186 ft | 425 kts | 243° |
| 2026-05-06 12:05 | -31.06531 | 148.22564 | 34182 ft | 425 kts | 243° |
| 2026-05-06 12:05 | -31.09861 | 148.16905 | 34184 ft | 425 kts | 243° |
| 2026-05-06 12:06 | -31.13205 | 148.11215 | 34185 ft | 425 kts | 243° |
| 2026-05-06 12:06 | -31.16472 | 148.05476 | 34182 ft | 424 kts | 244° |
| 2026-05-06 12:07 | -31.19746 | 147.99728 | 34191 ft | 424 kts | 244° |
| 2026-05-06 12:07 | -31.22990 | 147.94027 | 34185 ft | 423 kts | 244° |
| 2026-05-06 12:08 | -31.26254 | 147.88280 | 34187 ft | 423 kts | 244° |
| 2026-05-06 12:08 | -31.29506 | 147.82545 | 34189 ft | 423 kts | 244° |
| 2026-05-06 12:09 | -31.32734 | 147.76846 | 34189 ft | 423 kts | 244° |
| 2026-05-06 12:09 | -31.35981 | 147.71103 | 34193 ft | 422 kts | 244° |
| 2026-05-06 12:10 | -31.39217 | 147.65372 | 34197 ft | 421 kts | 244° |
| 2026-05-06 12:10 | -31.42450 | 147.59638 | 34198 ft | 422 kts | 244° |
| 2026-05-06 12:11 | -31.45654 | 147.53949 | 34190 ft | 421 kts | 244° |
| 2026-05-06 12:11 | -31.48877 | 147.48215 | 34205 ft | 421 kts | 244° |
| 2026-05-06 12:12 | -31.52099 | 147.42474 | 34205 ft | 421 kts | 244° |
| 2026-05-06 12:12 | -31.55318 | 147.36731 | 34199 ft | 421 kts | 244° |
| 2026-05-06 12:13 | -31.58539 | 147.30977 | 34206 ft | 422 kts | 244° |
| 2026-05-06 12:13 | -31.61737 | 147.25254 | 34210 ft | 422 kts | 244° |
| 2026-05-06 12:14 | -31.64951 | 147.19494 | 34236 ft | 422 kts | 244° |
| 2026-05-06 12:14 | -31.68164 | 147.13727 | 34210 ft | 421 kts | 244° |
| 2026-05-06 12:15 | -31.71371 | 147.07963 | 34206 ft | 422 kts | 244° |
| 2026-05-06 12:15 | -31.74560 | 147.02222 | 34210 ft | 422 kts | 244° |
| 2026-05-06 12:16 | -31.77768 | 146.96439 | 34214 ft | 422 kts | 244° |
| 2026-05-06 12:16 | -31.80971 | 146.90654 | 34236 ft | 422 kts | 244° |
| 2026-05-06 12:17 | -31.84155 | 146.84897 | 34216 ft | 422 kts | 244° |
| 2026-05-06 12:17 | -31.87350 | 146.79112 | 34215 ft | 422 kts | 244° |
| 2026-05-06 12:18 | -31.90551 | 146.73305 | 34215 ft | 422 kts | 244° |
| 2026-05-06 12:18 | -31.93745 | 146.67504 | 34215 ft | 422 kts | 244° |
| 2026-05-06 12:19 | -31.96942 | 146.61686 | 34230 ft | 422 kts | 244° |
| 2026-05-06 12:19 | -32.00126 | 146.55885 | 34223 ft | 422 kts | 244° |
| 2026-05-06 12:20 | -32.03285 | 146.50120 | 34221 ft | 422 kts | 244° |
| 2026-05-06 12:20 | -32.06466 | 146.44308 | 34221 ft | 422 kts | 244° |
| 2026-05-06 12:21 | -32.09640 | 146.38497 | 34224 ft | 421 kts | 244° |
| 2026-05-06 12:21 | -32.12806 | 146.32693 | 34224 ft | 420 kts | 244° |
| 2026-05-06 12:22 | -32.15970 | 146.26884 | 34225 ft | 420 kts | 244° |
| 2026-05-06 12:22 | -32.19109 | 146.21111 | 34224 ft | 420 kts | 244° |
| 2026-05-06 12:23 | -32.22269 | 146.15291 | 34223 ft | 420 kts | 244° |
| 2026-05-06 12:23 | -32.25424 | 146.09472 | 34236 ft | 420 kts | 244° |
| 2026-05-06 12:24 | -32.28561 | 146.03676 | 34222 ft | 419 kts | 244° |
| 2026-05-06 12:24 | -32.31702 | 145.97866 | 34220 ft | 419 kts | 244° |
| 2026-05-06 12:25 | -32.34836 | 145.92059 | 34222 ft | 419 kts | 244° |
| 2026-05-06 12:25 | -32.37947 | 145.86284 | 34218 ft | 419 kts | 244° |
| 2026-05-06 12:26 | -32.41071 | 145.80478 | 34227 ft | 418 kts | 244° |
| 2026-05-06 12:26 | -32.44190 | 145.74670 | 34215 ft | 418 kts | 244° |
| 2026-05-06 12:27 | -32.47313 | 145.68848 | 34216 ft | 418 kts | 244° |
| 2026-05-06 12:27 | -32.50405 | 145.63074 | 34214 ft | 418 kts | 244° |
| 2026-05-06 12:28 | -32.53516 | 145.57255 | 34244 ft | 418 kts | 245° |
| 2026-05-06 12:28 | -32.56620 | 145.51441 | 34216 ft | 416 kts | 244° |
| 2026-05-06 12:29 | -32.59716 | 145.45632 | 34214 ft | 417 kts | 244° |
| 2026-05-06 12:29 | -32.62793 | 145.39851 | 34215 ft | 417 kts | 244° |
| 2026-05-06 12:30 | -32.65890 | 145.34024 | 34218 ft | 416 kts | 245° |
| 2026-05-06 12:30 | -32.68973 | 145.28211 | 34225 ft | 416 kts | 245° |
| 2026-05-06 12:31 | -32.72051 | 145.22400 | 34208 ft | 415 kts | 245° |
| 2026-05-06 12:31 | -32.75108 | 145.16621 | 34210 ft | 416 kts | 245° |
| 2026-05-06 12:32 | -32.78182 | 145.10799 | 34209 ft | 416 kts | 245° |
| 2026-05-06 12:32 | -32.81255 | 145.04971 | 34208 ft | 416 kts | 245° |
| 2026-05-06 12:33 | -32.84322 | 144.99144 | 34202 ft | 415 kts | 245° |
| 2026-05-06 12:33 | -32.87369 | 144.93346 | 34205 ft | 415 kts | 245° |
| 2026-05-06 12:34 | -32.90432 | 144.87511 | 34206 ft | 416 kts | 245° |
| 2026-05-06 12:34 | -32.93491 | 144.81672 | 34208 ft | 416 kts | 245° |
| 2026-05-06 12:35 | -32.96545 | 144.75833 | 34210 ft | 415 kts | 245° |
| 2026-05-06 12:35 | -32.99600 | 144.69984 | 34208 ft | 416 kts | 245° |
| 2026-05-06 12:36 | -33.02650 | 144.64135 | 34208 ft | 415 kts | 245° |
| 2026-05-06 12:36 | -33.05680 | 144.58313 | 34209 ft | 415 kts | 245° |
| 2026-05-06 12:37 | -33.08721 | 144.52464 | 34237 ft | 416 kts | 245° |
| 2026-05-06 12:37 | -33.11767 | 144.46595 | 34208 ft | 416 kts | 245° |
| 2026-05-06 12:38 | -33.14810 | 144.40721 | 34211 ft | 416 kts | 245° |
| 2026-05-06 12:38 | -33.17851 | 144.34843 | 34210 ft | 416 kts | 245° |
| 2026-05-06 12:39 | -33.20868 | 144.29001 | 34210 ft | 416 kts | 245° |
| 2026-05-06 12:39 | -33.23885 | 144.23151 | 34210 ft | 416 kts | 245° |
| 2026-05-06 12:40 | -33.26920 | 144.17257 | 34212 ft | 416 kts | 245° |
| 2026-05-06 12:40 | -33.29956 | 144.11354 | 34211 ft | 416 kts | 245° |
| 2026-05-06 12:41 | -33.32982 | 144.05462 | 34211 ft | 416 kts | 245° |
| 2026-05-06 12:41 | -33.36011 | 143.99553 | 34231 ft | 417 kts | 245° |
| 2026-05-06 12:42 | -33.39024 | 143.93666 | 34212 ft | 416 kts | 245° |
| 2026-05-06 12:42 | -33.42052 | 143.87740 | 34212 ft | 417 kts | 245° |
| 2026-05-06 12:43 | -33.45052 | 143.81860 | 34212 ft | 417 kts | 245° |
| 2026-05-06 12:43 | -33.47958 | 143.75859 | 34240 ft | 414 kts | 248° |
| 2026-05-06 12:44 | -33.50701 | 143.69754 | 34215 ft | 416 kts | 248° |
| 2026-05-06 12:44 | -33.53460 | 143.63664 | 34211 ft | 416 kts | 248° |
| 2026-05-06 12:45 | -33.56215 | 143.57575 | 34214 ft | 416 kts | 248° |
| 2026-05-06 12:46 | -33.60325 | 143.48469 | 34234 ft | 416 kts | 248° |
| 2026-05-06 12:46 | -33.63078 | 143.42358 | 34215 ft | 416 kts | 248° |
| 2026-05-06 12:47 | -33.65827 | 143.36243 | 34216 ft | 416 kts | 248° |
| 2026-05-06 12:47 | -33.68578 | 143.30115 | 34217 ft | 416 kts | 248° |
| 2026-05-06 12:48 | -33.71305 | 143.24029 | 34206 ft | 416 kts | 248° |
| 2026-05-06 12:48 | -33.74048 | 143.17897 | 34222 ft | 416 kts | 248° |
| 2026-05-06 12:49 | -33.76778 | 143.11782 | 34225 ft | 415 kts | 248° |
| 2026-05-06 12:49 | -33.79510 | 143.05655 | 34224 ft | 415 kts | 248° |
| 2026-05-06 12:50 | -33.82219 | 142.99565 | 34208 ft | 415 kts | 248° |
| 2026-05-06 12:50 | -33.84950 | 142.93416 | 34248 ft | 415 kts | 248° |
| 2026-05-06 12:51 | -33.87654 | 142.87319 | 34227 ft | 412 kts | 248° |
| 2026-05-06 12:51 | -33.90332 | 142.81268 | 34229 ft | 412 kts | 248° |
| 2026-05-06 12:52 | -33.93024 | 142.75176 | 34218 ft | 412 kts | 247° |
| 2026-05-06 12:52 | -33.95719 | 142.69065 | 34256 ft | 413 kts | 247° |
| 2026-05-06 12:53 | -33.98407 | 142.62965 | 34241 ft | 409 kts | 247° |
| 2026-05-06 12:53 | -34.01070 | 142.56903 | 34239 ft | 410 kts | 247° |
| 2026-05-06 12:54 | -34.03717 | 142.50871 | 34225 ft | 409 kts | 247° |
| 2026-05-06 12:54 | -34.06373 | 142.44808 | 34235 ft | 410 kts | 247° |
| 2026-05-06 12:55 | -34.09028 | 142.38738 | 34253 ft | 408 kts | 247° |
| 2026-05-06 12:55 | -34.11664 | 142.32697 | 34253 ft | 407 kts | 247° |
| 2026-05-06 12:56 | -34.14304 | 142.26638 | 34245 ft | 407 kts | 247° |
| 2026-05-06 12:56 | -34.16940 | 142.20581 | 34249 ft | 408 kts | 247° |
| 2026-05-06 12:57 | -34.19562 | 142.14547 | 34249 ft | 408 kts | 247° |
| 2026-05-06 12:57 | -34.22190 | 142.08469 | 34257 ft | 407 kts | 249° |
| 2026-05-06 12:58 | -34.23910 | 142.03216 | 34236 ft | 405 kts | 252° |
| 2026-05-06 12:58 | -34.26043 | 141.96888 | 34259 ft | 406 kts | 251° |
| 2026-05-06 12:59 | -34.28178 | 141.90578 | 34260 ft | 406 kts | 251° |
| 2026-05-06 12:59 | -34.30312 | 141.84256 | 34270 ft | 404 kts | 252° |
| 2026-05-06 13:00 | -34.32429 | 141.77970 | 34259 ft | 404 kts | 251° |
| 2026-05-06 13:00 | -34.34532 | 141.71713 | 34267 ft | 404 kts | 251° |
| 2026-05-06 13:01 | -34.36648 | 141.65407 | 34271 ft | 404 kts | 252° |
| 2026-05-06 13:01 | -34.38762 | 141.59094 | 34302 ft | 404 kts | 252° |
| 2026-05-06 13:02 | -34.40865 | 141.52800 | 34271 ft | 402 kts | 252° |
| 2026-05-06 13:02 | -34.42949 | 141.46550 | 34273 ft | 402 kts | 252° |
| 2026-05-06 13:03 | -34.45044 | 141.40256 | 34284 ft | 402 kts | 252° |
| 2026-05-06 13:03 | -34.47131 | 141.33970 | 34270 ft | 402 kts | 252° |
| 2026-05-06 13:04 | -34.49222 | 141.27660 | 34294 ft | 403 kts | 252° |
| 2026-05-06 13:04 | -34.51304 | 141.21368 | 34282 ft | 402 kts | 252° |
| 2026-05-06 13:05 | -34.53384 | 141.15066 | 34291 ft | 402 kts | 252° |
| 2026-05-06 13:05 | -34.55445 | 141.08809 | 34271 ft | 402 kts | 251° |
| 2026-05-06 13:06 | -34.57527 | 141.02476 | 34292 ft | 404 kts | 251° |
| 2026-05-06 13:06 | -34.59602 | 140.96149 | 34299 ft | 403 kts | 251° |
| 2026-05-06 13:07 | -34.61670 | 140.89832 | 34299 ft | 403 kts | 251° |
| 2026-05-06 13:07 | -34.63737 | 140.83502 | 34295 ft | 404 kts | 251° |
| 2026-05-06 13:07 | -34.64770 | 140.80337 | 33960 ft | 401 kts | 251° |
| 2026-05-06 13:08 | -34.65793 | 140.77198 | 33379 ft | 397 kts | 250° |
| 2026-05-06 13:08 | -34.66800 | 140.74106 | 33012 ft | 389 kts | 250° |
| 2026-05-06 13:08 | -34.67785 | 140.71076 | 32616 ft | 383 kts | 250° |
| 2026-05-06 13:08 | -34.68745 | 140.68120 | 32110 ft | 379 kts | 250° |
| 2026-05-06 13:09 | -34.69709 | 140.65150 | 31569 ft | 377 kts | 249° |
| 2026-05-06 13:09 | -34.70667 | 140.62198 | 31042 ft | 374 kts | 249° |
| 2026-05-06 13:09 | -34.71619 | 140.59262 | 30563 ft | 371 kts | 249° |
| 2026-05-06 13:09 | -34.72565 | 140.56342 | 30001 ft | 369 kts | 249° |
| 2026-05-06 13:10 | -34.73361 | 140.53403 | 29374 ft | 365 kts | 260° |
| 2026-05-06 13:10 | -34.73506 | 140.50360 | 28854 ft | 357 kts | 265° |
| 2026-05-06 13:10 | -34.73678 | 140.47391 | 28506 ft | 351 kts | 263° |
| 2026-05-06 13:10 | -34.73850 | 140.44387 | 28033 ft | 359 kts | 264° |
| 2026-05-06 13:11 | -34.74003 | 140.41334 | 27545 ft | 363 kts | 264° |
| 2026-05-06 13:11 | -34.74141 | 140.38292 | 27121 ft | 364 kts | 264° |
| 2026-05-06 13:11 | -34.74271 | 140.35227 | 26651 ft | 362 kts | 264° |
| 2026-05-06 13:11 | -34.74394 | 140.32174 | 26190 ft | 360 kts | 264° |
| 2026-05-06 13:12 | -34.74514 | 140.29141 | 25731 ft | 357 kts | 264° |
| 2026-05-06 13:12 | -34.74631 | 140.26135 | 25275 ft | 355 kts | 264° |
| 2026-05-06 13:12 | -34.74748 | 140.23150 | 24833 ft | 353 kts | 264° |
| 2026-05-06 13:12 | -34.74862 | 140.20182 | 24386 ft | 350 kts | 263° |
| 2026-05-06 13:13 | -34.74976 | 140.17229 | 23928 ft | 349 kts | 263° |
| 2026-05-06 13:13 | -34.75089 | 140.14290 | 23427 ft | 347 kts | 263° |
| 2026-05-06 13:13 | -34.75199 | 140.11374 | 22960 ft | 345 kts | 263° |
| 2026-05-06 13:13 | -34.75309 | 140.08469 | 22522 ft | 342 kts | 263° |
| 2026-05-06 13:14 | -34.75416 | 140.05593 | 22094 ft | 339 kts | 263° |
| 2026-05-06 13:14 | -34.75521 | 140.02781 | 21683 ft | 336 kts | 262° |
| 2026-05-06 13:14 | -34.75626 | 139.99942 | 21268 ft | 334 kts | 262° |
| 2026-05-06 13:14 | -34.75730 | 139.97121 | 20857 ft | 332 kts | 262° |
| 2026-05-06 13:15 | -34.75832 | 139.94324 | 20444 ft | 330 kts | 262° |
| 2026-05-06 13:15 | -34.75933 | 139.91541 | 20074 ft | 328 kts | 262° |
| 2026-05-06 13:15 | -34.76033 | 139.88775 | 19664 ft | 327 kts | 261° |
| 2026-05-06 13:15 | -34.76132 | 139.86022 | 19275 ft | 325 kts | 261° |
| 2026-05-06 13:16 | -34.76229 | 139.83282 | 18893 ft | 324 kts | 261° |
| 2026-05-06 13:16 | -34.76326 | 139.80553 | 18490 ft | 322 kts | 261° |
| 2026-05-06 13:16 | -34.76422 | 139.77837 | 18076 ft | 320 kts | 261° |
| 2026-05-06 13:16 | -34.76516 | 139.75177 | 17691 ft | 318 kts | 261° |
| 2026-05-06 13:17 | -34.76608 | 139.72495 | 17298 ft | 315 kts | 262° |
| 2026-05-06 13:17 | -34.76700 | 139.69848 | 16940 ft | 312 kts | 262° |
| 2026-05-06 13:17 | -34.76791 | 139.67216 | 16581 ft | 310 kts | 262° |
| 2026-05-06 13:17 | -34.76880 | 139.64600 | 16223 ft | 311 kts | 262° |
| 2026-05-06 13:18 | -34.76970 | 139.61959 | 15865 ft | 315 kts | 263° |
| 2026-05-06 13:18 | -34.77060 | 139.59283 | 15500 ft | 316 kts | 263° |
| 2026-05-06 13:18 | -34.77148 | 139.56646 | 15141 ft | 315 kts | 263° |
| 2026-05-06 13:18 | -34.77236 | 139.53994 | 14788 ft | 313 kts | 263° |
| 2026-05-06 13:19 | -34.77324 | 139.51351 | 14407 ft | 311 kts | 263° |
| 2026-05-06 13:19 | -34.77410 | 139.48740 | 14049 ft | 308 kts | 263° |
| 2026-05-06 13:19 | -34.77494 | 139.46139 | 13680 ft | 306 kts | 263° |
| 2026-05-06 13:19 | -34.77578 | 139.43561 | 13304 ft | 303 kts | 263° |
| 2026-05-06 13:20 | -34.77654 | 139.41010 | 12937 ft | 301 kts | 264° |
| 2026-05-06 13:20 | -34.77713 | 139.38462 | 12555 ft | 299 kts | 264° |
| 2026-05-06 13:20 | -34.77772 | 139.35983 | 12239 ft | 295 kts | 264° |
| 2026-05-06 13:20 | -34.77831 | 139.33501 | 11927 ft | 292 kts | 264° |
| 2026-05-06 13:21 | -34.77890 | 139.31053 | 11602 ft | 289 kts | 264° |
| 2026-05-06 13:21 | -34.77947 | 139.28621 | 11330 ft | 285 kts | 264° |
| 2026-05-06 13:21 | -34.78002 | 139.26244 | 11177 ft | 276 kts | 264° |
| 2026-05-06 13:21 | -34.78055 | 139.23946 | 11045 ft | 268 kts | 264° |
| 2026-05-06 13:22 | -34.78106 | 139.21704 | 10903 ft | 262 kts | 264° |
| 2026-05-06 13:22 | -34.78157 | 139.19510 | 10648 ft | 258 kts | 264° |
| 2026-05-06 13:22 | -34.78208 | 139.17320 | 10312 ft | 258 kts | 264° |
| 2026-05-06 13:22 | -34.78257 | 139.15144 | 10034 ft | 258 kts | 264° |
| 2026-05-06 13:23 | -34.78306 | 139.12954 | 9683 ft | 259 kts | 264° |
| 2026-05-06 13:23 | -34.78353 | 139.10795 | 9404 ft | 258 kts | 264° |
| 2026-05-06 13:23 | -34.78401 | 139.08603 | 9103 ft | 258 kts | 264° |
| 2026-05-06 13:23 | -34.78448 | 139.06429 | 8822 ft | 256 kts | 264° |
| 2026-05-06 13:24 | -34.78494 | 139.04264 | 8516 ft | 255 kts | 264° |
| 2026-05-06 13:24 | -34.78539 | 139.02127 | 8245 ft | 253 kts | 263° |
| 2026-05-06 13:24 | -34.78584 | 138.99997 | 7940 ft | 251 kts | 263° |
| 2026-05-06 13:24 | -34.78628 | 138.97884 | 7648 ft | 250 kts | 263° |
| 2026-05-06 13:25 | -34.78673 | 138.95756 | 7342 ft | 252 kts | 263° |
| 2026-05-06 13:25 | -34.78718 | 138.93610 | 7046 ft | 254 kts | 263° |
| 2026-05-06 13:25 | -34.78758 | 138.91484 | 6710 ft | 248 kts | 263° |
| 2026-05-06 13:25 | -34.78798 | 138.89428 | 6388 ft | 239 kts | 263° |
| 2026-05-06 13:26 | -34.78838 | 138.87465 | 6064 ft | 231 kts | 262° |
| 2026-05-06 13:26 | -34.78877 | 138.85517 | 5760 ft | 233 kts | 263° |
| 2026-05-06 13:26 | -34.78919 | 138.83534 | 5485 ft | 236 kts | 263° |
| 2026-05-06 13:26 | -34.78958 | 138.81528 | 5207 ft | 239 kts | 263° |
| 2026-05-06 13:27 | -34.78997 | 138.79501 | 4901 ft | 239 kts | 263° |
| 2026-05-06 13:27 | -34.79044 | 138.77475 | 4573 ft | 237 kts | 258° |
| 2026-05-06 13:27 | -34.79516 | 138.75603 | 4238 ft | 228 kts | 236° |
| 2026-05-06 13:27 | -34.80415 | 138.74053 | 3938 ft | 220 kts | 227° |
| 2026-05-06 13:28 | -34.81355 | 138.72658 | 3884 ft | 209 kts | 226° |
| 2026-05-06 13:28 | -34.82284 | 138.71314 | 3615 ft | 207 kts | 226° |
| 2026-05-06 13:28 | -34.83202 | 138.69989 | 3373 ft | 201 kts | 226° |
| 2026-05-06 13:28 | -34.84088 | 138.68710 | 3118 ft | 195 kts | 226° |
| 2026-05-06 13:29 | -34.84949 | 138.67467 | 2847 ft | 189 kts | 226° |
| 2026-05-06 13:29 | -34.85778 | 138.66271 | 2596 ft | 180 kts | 226° |
| 2026-05-06 13:29 | -34.86567 | 138.65135 | 2351 ft | 173 kts | 226° |
| 2026-05-06 13:29 | -34.87334 | 138.64029 | 2120 ft | 173 kts | 226° |
| 2026-05-06 13:30 | -34.88108 | 138.62912 | 1880 ft | 168 kts | 226° |
| 2026-05-06 13:30 | -34.88827 | 138.61873 | 1651 ft | 153 kts | 226° |
| 2026-05-06 13:30 | -34.89503 | 138.60898 | 1464 ft | 150 kts | 226° |
| 2026-05-06 13:30 | -34.90164 | 138.59944 | 1274 ft | 144 kts | 226° |
| 2026-05-06 13:31 | -34.90807 | 138.59016 | 1056 ft | 144 kts | 226° |
| 2026-05-06 13:31 | -34.91461 | 138.58075 | 851 ft | 144 kts | 226° |
| 2026-05-06 13:31 | -34.92083 | 138.57164 | 653 ft | 142 kts | 228° |
| 2026-05-06 13:31 | -34.92716 | 138.56263 | 476 ft | 141 kts | 225° |
| 2026-05-06 13:32 | -34.93348 | 138.55354 | 286 ft | 140 kts | 225° |
| 2026-05-06 13:32 | -34.93968 | 138.54464 | 103 ft | 135 kts | 226° |
| 2026-05-06 13:32 | -34.94538 | 138.53642 | 27 ft | 108 kts | 231° |
| 2026-05-06 13:32 | -34.94862 | 138.53158 | 26 ft | 50 kts | 230° |
| 2026-05-06 13:33 | -34.95061 | 138.52872 | 26 ft | 37 kts | 229° |
| 2026-05-06 13:33 | -34.95195 | 138.52678 | 23 ft | 18 kts | 231° |
| 2026-05-06 13:33 | -34.95241 | 138.52579 | 25 ft | 13 kts | 271° |
| 2026-05-06 13:33 | -34.95182 | 138.52501 | 24 ft | 11 kts | 322° |
| 2026-05-06 13:34 | -34.95111 | 138.52452 | 25 ft | 12 kts | 348° |
| 2026-05-06 13:34 | -34.95025 | 138.52465 | 24 ft | 13 kts | 25° |
| 2026-05-06 13:34 | -34.94942 | 138.52535 | 23 ft | 17 kts | 38° |
| 2026-05-06 13:34 | -34.94836 | 138.52635 | 22 ft | 18 kts | 38° |
| 2026-05-06 13:35 | -34.94744 | 138.52721 | 24 ft | 13 kts | 38° |
| 2026-05-06 13:35 | -34.94667 | 138.52795 | 23 ft | 15 kts | 38° |
| 2026-05-06 13:35 | -34.94600 | 138.52858 | 25 ft | 12 kts | 37° |
| 2026-05-06 13:35 | -34.94540 | 138.52913 | 29 ft | 10 kts | 37° |
| 2026-05-06 13:36 | -34.94475 | 138.52973 | 28 ft | 13 kts | 38° |
| 2026-05-06 13:36 | -34.94443 | 138.53077 | 27 ft | 14 kts | 103° |
| 2026-05-06 13:36 | -34.94485 | 138.53168 | 28 ft | 12 kts | 123° |
| 2026-05-06 13:36 | -34.94518 | 138.53269 | 25 ft | 14 kts | 96° |
| 2026-05-06 13:37 | -34.94478 | 138.53382 | 25 ft | 16 kts | 52° |
| 2026-05-06 13:37 | -34.94408 | 138.53493 | 25 ft | 18 kts | 52° |
| 2026-05-06 13:37 | -34.94324 | 138.53606 | 26 ft | 18 kts | 48° |
| 2026-05-06 13:37 | -34.94247 | 138.53651 | 26 ft | 12 kts | 336° |
| 2026-05-06 13:38 | -34.94172 | 138.53663 | 27 ft | 12 kts | 38° |
| 2026-05-06 13:38 | -34.94116 | 138.53741 | 28 ft | 13 kts | 50° |
| 2026-05-06 13:38 | -34.94053 | 138.53832 | 28 ft | 15 kts | 50° |
| 2026-05-06 13:38 | -34.93987 | 138.53928 | 27 ft | 14 kts | 50° |
| 2026-05-06 13:39 | -34.93931 | 138.54010 | 28 ft | 6 kts | 32° |
| 2026-05-06 13:39 | -34.93908 | 138.54011 | 29 ft | 0 kts | 330° |
| 2026-05-06 13:39 | -34.93895 | 138.53998 | 29 ft | 7 kts | 319° |
| 2026-05-06 13:39 | -34.93861 | 138.53963 | 29 ft | 7 kts | 321° |
| 2026-05-06 13:40 | -34.93857 | 138.53959 | 29 ft | 0 kts | 320° |